Time;durP1;ratioP1;P1;durP2;ratioP2;P2;SDS_P1;SDS_P2;PMS_P1;PMS_P2;Temp;Humidity;BMP_temperature;BMP_pressure;BME280_temperature;BME280_humidity;BME280_pressure;Samples;Min_cycle;Max_cycle;Signal;HPM_P1;HPM_P2
2020/12/29 01:33:41;;;;;;;17.77;13.83;;;4.40;99.90;;;-146.47;100.00;66290.13;4647938;30;20676;-82
2020/12/29 01:53:53;;;;;;;20.17;13.97;;;4.20;99.90;;;-146.47;100.00;66290.13;4659960;30;20836;-83
2020/12/29 02:05:40;;;;;;;19.27;13.43;;;4.40;99.90;;;-146.47;100.00;66290.13;4747106;29;20342;-82
2020/12/29 02:13:46;;;;;;;16.73;12.30;;;4.40;99.90;;;-146.47;100.00;66290.13;4806975;29;20271;-81
2020/12/29 02:18:23;;;;;;;;;;;;;;;;;;;;;
2020/12/29 02:26:04;;;;;;;18.13;13.37;;;4.40;99.90;;;-146.47;100.00;66290.13;4671642;30;22662;-82
2020/12/29 02:33:44;;;;;;;16.63;11.63;;;4.10;99.90;;;-146.47;100.00;66290.13;4708582;30;20207;-81
2020/12/29 02:45:14;;;;;;;16.53;12.03;;;4.30;99.90;;;-146.47;100.00;66290.13;4746379;29;20243;-82
2020/12/29 03:06:23;;;;;;;16.93;13.40;;;4.20;99.90;;;-146.47;100.00;66290.13;4872264;29;20212;-82
2020/12/29 03:09:21;;;;;;;20.00;14.43;;;4.20;99.90;;;-146.47;100.00;66290.13;4873860;29;20258;-82
2020/12/29 03:12:24;;;;;;;20.27;13.30;;;4.20;99.90;;;-146.47;100.00;66290.13;4887378;29;20204;-82
2020/12/29 03:15:10;;;;;;;19.07;13.77;;;4.30;99.90;;;-146.47;100.00;66290.13;4887105;29;20200;-83
2020/12/29 03:18:13;;;;;;;;;;;;;;;;;;;;;
2020/12/29 03:21:17;;;;;;;20.87;15.10;;;4.30;99.90;;;-146.47;100.00;66290.13;4887633;29;20207;-83
2020/12/29 03:24:12;;;;;;;19.53;14.70;;;4.20;99.90;;;-146.47;100.00;66290.13;4891801;29;20743;-82
2020/12/29 03:26:58;;;;;;;20.20;14.73;;;4.50;99.90;;;-146.47;100.00;66290.13;4883950;29;20220;-82
2020/12/29 03:30:10;;;;;;;19.00;14.07;;;4.20;99.90;;;-146.47;100.00;66290.13;4885494;29;20212;-82
2020/12/29 03:33:05;;;;;;;20.30;14.63;;;4.20;99.90;;;-146.47;100.00;66290.13;4878801;29;20250;-82
2020/12/29 03:35:51;;;;;;;17.60;14.50;;;4.30;99.90;;;-146.47;100.00;66290.13;4881535;29;20220;-81
2020/12/29 03:38:37;;;;;;;17.50;14.07;;;4.40;99.90;;;-146.47;100.00;66290.13;4884767;29;20217;-81
2020/12/29 03:41:22;;;;;;;18.83;14.27;;;4.10;99.90;;;-146.47;100.00;66290.13;4884604;29;20212;-81
2020/12/29 03:44:10;;;;;;;17.40;13.80;;;4.30;99.90;;;-146.47;100.00;66290.13;4878564;29;20232;-82
2020/12/29 03:46:55;;;;;;;18.67;14.30;;;4.60;99.90;;;-146.47;100.00;66290.13;4876107;29;20200;-83
2020/12/29 03:49:40;;;;;;;18.87;14.53;;;4.30;99.90;;;-146.47;100.00;66290.13;4883134;29;20209;-81
2020/12/29 03:52:26;;;;;;;16.90;13.60;;;4.50;99.90;;;-146.47;100.00;66290.13;4884074;29;20213;-81
2020/12/29 03:55:13;;;;;;;18.07;13.50;;;4.30;99.90;;;-146.47;100.00;66290.13;4883146;29;20221;-82
2020/12/29 03:57:59;;;;;;;17.43;13.87;;;4.30;99.90;;;-146.47;100.00;66290.13;4884458;29;20204;-82
2020/12/29 04:00:44;;;;;;;20.43;14.33;;;4.30;99.90;;;-146.47;100.00;66290.13;4885177;29;20209;-82
2020/12/29 04:03:29;;;;;;;18.60;14.30;;;4.30;99.90;;;-146.47;100.00;66290.13;4884385;29;20240;-83
2020/12/29 04:06:15;;;;;;;22.67;15.50;;;4.40;99.90;;;-146.47;100.00;66290.13;4885031;29;20297;-83
2020/12/29 04:09:00;;;;;;;20.93;16.37;;;4.40;99.90;;;-146.47;100.00;66290.13;4888712;29;20275;-82
2020/12/29 04:11:46;;;;;;;18.60;14.57;;;4.40;99.90;;;-146.47;100.00;66290.13;4873378;29;20208;-83
2020/12/29 04:14:32;;;;;;;16.87;14.13;;;4.40;99.90;;;-146.47;100.00;66290.13;4884884;29;20286;-82
2020/12/29 04:17:17;;;;;;;21.00;15.27;;;4.40;99.90;;;-146.47;100.00;66290.13;4884646;29;20209;-82
2020/12/29 04:20:05;;;;;;;19.03;14.67;;;4.40;99.90;;;-146.47;100.00;66290.13;4885925;29;20213;-82
2020/12/29 04:22:51;;;;;;;19.73;15.37;;;4.40;99.90;;;-146.47;100.00;66290.13;4884356;29;20224;-83
2020/12/29 04:25:36;;;;;;;18.50;15.07;;;4.70;99.90;;;-146.47;100.00;66290.13;4884891;29;20304;-83
2020/12/29 04:28:24;;;;;;;19.00;15.50;;;4.50;99.90;;;-146.47;100.00;66290.13;4884863;29;20257;-83
2020/12/29 04:31:12;;;;;;;20.33;15.23;;;4.70;99.90;;;-146.47;100.00;66290.13;4884751;29;20237;-82
2020/12/29 04:34:00;;;;;;;19.23;15.20;;;4.40;99.90;;;-146.47;100.00;66290.13;4881160;29;20385;-84
2020/12/29 04:36:45;;;;;;;19.47;15.70;;;4.50;99.90;;;-146.47;100.00;66290.13;4882013;29;20220;-82
2020/12/29 04:39:35;;;;;;;21.20;15.87;;;4.50;99.90;;;-146.47;100.00;66290.13;4878210;29;20229;-83
2020/12/29 04:42:23;;;;;;;21.10;16.20;;;4.60;99.90;;;-146.47;100.00;66290.13;4884553;29;20216;-83
2020/12/29 04:45:11;;;;;;;20.70;16.80;;;4.50;99.90;;;-146.47;100.00;66290.13;4883315;29;20596;-84
2020/12/29 04:47:58;;;;;;;19.37;15.73;;;4.50;99.90;;;-146.47;100.00;66290.13;4885741;29;20209;-82
2020/12/29 04:50:49;;;;;;;23.83;17.37;;;4.50;99.90;;;-146.47;100.00;66290.13;4881821;29;20650;-83
2020/12/29 04:53:37;;;;;;;18.87;15.23;;;4.50;99.90;;;-146.47;100.00;66290.13;4885697;29;20240;-84
2020/12/29 04:56:31;;;;;;;21.27;16.63;;;4.70;99.90;;;-146.47;100.00;66290.13;4885827;29;20221;-82
2020/12/29 04:59:18;;;;;;;22.63;14.87;;;4.50;99.90;;;-146.47;100.00;66290.13;4885602;29;20222;-83
2020/12/29 05:02:06;;;;;;;17.37;12.87;;;4.50;99.90;;;-146.47;100.00;66290.13;4885848;29;20238;-83
2020/12/29 05:04:53;;;;;;;21.83;15.40;;;4.50;99.90;;;-146.47;100.00;66290.13;4877561;29;20234;-83
2020/12/29 05:07:40;;;;;;;21.90;15.20;;;4.50;99.90;;;-146.47;100.00;66290.13;4869841;29;20744;-82
2020/12/29 05:10:26;;;;;;;20.63;15.40;;;4.50;99.90;;;-146.47;100.00;66290.13;4867522;29;20213;-84
2020/12/29 05:13:12;;;;;;;17.03;12.97;;;4.40;99.90;;;-146.47;100.00;66290.13;4871386;29;20250;-83
2020/12/29 05:15:58;;;;;;;19.13;15.03;;;4.50;99.90;;;-146.47;100.00;66290.13;4884704;29;20311;-83
2020/12/29 05:18:45;;;;;;;18.77;14.13;;;4.50;99.90;;;-146.47;100.00;66290.13;4884793;29;20216;-83
2020/12/29 05:21:31;;;;;;;21.70;15.30;;;4.60;99.90;;;-146.47;100.00;66290.13;4885167;29;20463;-83
2020/12/29 05:24:21;;;;;;;19.53;15.17;;;4.60;99.90;;;-146.47;100.00;66290.13;4878193;29;20279;-83
2020/12/29 05:27:06;;;;;;;19.20;14.77;;;4.50;99.90;;;-146.47;100.00;66290.13;4880200;29;20660;-84
2020/12/29 05:29:52;;;;;;;21.77;15.70;;;4.60;99.90;;;-146.47;100.00;66290.13;4883887;29;20688;-83
2020/12/29 05:32:45;;;;;;;25.03;17.10;;;4.50;99.90;;;-146.47;100.00;66290.13;4877692;29;20208;-84
2020/12/29 05:35:34;;;;;;;21.23;15.90;;;4.60;99.90;;;-146.47;100.00;66290.13;4887429;29;20212;-83
2020/12/29 05:38:20;;;;;;;22.10;16.77;;;4.60;99.90;;;-146.47;100.00;66290.13;4884874;29;20225;-83
2020/12/29 05:41:13;;;;;;;21.77;16.70;;;4.60;99.90;;;-146.47;100.00;66290.13;4886246;29;20218;-83
2020/12/29 05:44:03;;;;;;;22.40;16.80;;;4.60;99.90;;;-146.47;100.00;66290.13;4880950;29;20228;-84
2020/12/29 05:46:49;;;;;;;25.23;18.10;;;4.60;99.90;;;-146.47;100.00;66290.13;4895732;29;20193;-83
2020/12/29 05:49:35;;;;;;;23.10;16.77;;;4.60;99.90;;;-146.47;100.00;66290.13;4902749;29;20271;-82
2020/12/29 05:52:23;;;;;;;24.37;18.20;;;4.60;99.90;;;-146.47;100.00;66290.13;4902851;29;20206;-82
2020/12/29 05:55:14;;;;;;;24.30;17.23;;;4.70;99.90;;;-146.47;100.00;66290.13;4898030;29;20251;-82
2020/12/29 05:58:06;;;;;;;21.33;16.87;;;4.70;99.90;;;-146.47;100.00;66290.13;4899865;29;20213;-84
2020/12/29 06:00:55;;;;;;;24.27;17.83;;;4.60;99.90;;;-146.47;100.00;66290.13;4883425;29;20205;-81
2020/12/29 06:03:44;;;;;;;24.53;18.37;;;4.60;99.90;;;-146.47;100.00;66290.13;4881776;29;20237;-82
2020/12/29 06:06:34;;;;;;;27.73;19.87;;;4.40;99.90;;;-146.47;100.00;66290.13;4882450;29;20234;-82
2020/12/29 06:09:22;;;;;;;28.50;19.67;;;4.80;99.90;;;-146.47;100.00;66290.13;4885571;29;20278;-82
2020/12/29 06:12:31;;;;;;;25.93;20.07;;;4.70;99.90;;;-146.47;100.00;66290.13;4875031;29;20241;-82
2020/12/29 06:15:26;;;;;;;31.87;21.40;;;4.60;99.90;;;-146.47;100.00;66290.13;4885089;29;20280;-83
2020/12/29 06:51:04;;;;;;;39.97;25.93;;;4.80;99.90;;;-146.47;100.00;66290.13;4914885;29;20225;-82
2020/12/29 06:57:57;;;;;;;38.73;24.87;;;4.70;99.90;;;-146.47;100.00;66290.13;4849648;29;20761;-82
2020/12/29 07:02:35;;;;;;;37.37;25.97;;;4.70;99.90;;;-146.47;100.00;66290.13;4860766;29;20232;-82
2020/12/29 07:10:04;;;;;;;42.23;28.03;;;4.80;99.90;;;-146.47;100.00;66290.13;4791869;29;20219;-82
2020/12/29 07:17:43;;;;;;;41.77;29.17;;;4.60;99.90;;;-146.47;100.00;66290.13;4719069;30;20222;-82
2020/12/29 07:26:18;;;;;;;;;;;;;;;;;;;;;
2020/12/29 07:29:07;;;;;;;43.17;29.50;;;4.60;99.90;;;-146.47;100.00;66290.13;4783446;29;20299;-82
2020/12/29 07:41:06;;;;;;;43.43;28.40;;;4.60;99.90;;;-146.47;100.00;66290.13;4786288;29;20210;-83
2020/12/29 07:44:33;;;;;;;50.27;31.33;;;4.70;99.90;;;-146.47;100.00;66290.13;4899742;29;20236;-82
2020/12/29 07:47:18;;;;;;;50.07;31.67;;;4.90;99.90;;;-146.47;100.00;66290.13;4901584;29;20275;-82
2020/12/29 07:50:04;;;;;;;43.70;28.57;;;4.60;99.90;;;-146.47;100.00;66290.13;4918864;29;20264;-84
2020/12/29 07:52:49;;;;;;;43.70;26.67;;;4.70;99.90;;;-146.47;100.00;66290.13;4907788;29;20236;-84
2020/12/29 07:55:35;;;;;;;41.17;25.57;;;4.70;99.90;;;-146.47;100.00;66290.13;4916376;29;20567;-84
2020/12/29 07:58:20;;;;;;;54.13;25.40;;;4.70;99.90;;;-146.47;100.00;66290.13;4916304;29;20207;-83
2020/12/29 08:01:06;;;;;;;48.47;25.07;;;4.70;99.90;;;-146.47;100.00;66290.13;4919382;29;20275;-83
2020/12/29 08:03:51;;;;;;;45.33;25.67;;;4.80;99.90;;;-146.47;100.00;66290.13;4902712;29;20729;-83
2020/12/29 08:06:41;;;;;;;48.13;25.20;;;4.80;99.90;;;-146.47;100.00;66290.13;4921999;29;20329;-83
2020/12/29 08:09:26;;;;;;;52.77;28.63;;;4.80;99.90;;;-146.47;100.00;66290.13;4923860;29;20279;-82
2020/12/29 08:12:14;;;;;;;45.30;24.67;;;4.80;99.90;;;-146.47;100.00;66290.13;4923486;29;20220;-81
2020/12/29 08:15:00;;;;;;;50.73;26.03;;;4.90;99.90;;;-146.47;100.00;66290.13;4924682;29;20248;-83
2020/12/29 08:17:46;;;;;;;44.20;23.27;;;4.90;99.90;;;-146.47;100.00;66290.13;4926587;29;20268;-82
2020/12/29 08:20:32;;;;;;;41.60;22.83;;;4.90;99.90;;;-146.47;100.00;66290.13;4911071;29;20211;-81
2020/12/29 08:23:20;;;;;;;44.37;23.60;;;4.90;99.90;;;-146.47;100.00;66290.13;4925246;29;20276;-82
2020/12/29 08:26:10;;;;;;;37.07;20.30;;;4.90;99.90;;;-146.47;100.00;66290.13;4927705;29;20754;-81
2020/12/29 08:28:55;;;;;;;29.97;16.53;;;4.90;99.90;;;-146.47;100.00;66290.13;4927258;29;20264;-83
2020/12/29 08:31:41;;;;;;;29.87;16.90;;;4.90;99.90;;;-146.47;100.00;66290.13;4912924;29;20219;-83
2020/12/29 08:34:27;;;;;;;27.43;16.13;;;4.90;99.90;;;-146.47;100.00;66290.13;4911794;29;20277;-84
2020/12/29 08:37:18;;;;;;;32.70;17.70;;;4.90;99.90;;;-146.47;100.00;66290.13;4916579;29;20215;-84
2020/12/29 08:40:12;;;;;;;29.10;17.83;;;4.90;99.90;;;-146.47;100.00;66290.13;4909531;29;20223;-83
2020/12/29 08:43:00;;;;;;;31.53;18.03;;;4.90;99.90;;;-146.47;100.00;66290.13;4914555;29;20215;-83
2020/12/29 08:45:47;;;;;;;33.43;18.50;;;4.90;99.90;;;-146.47;100.00;66290.13;4917192;29;20268;-83
2020/12/29 08:48:32;;;;;;;31.00;17.93;;;4.90;99.90;;;-146.47;100.00;66290.13;4916890;29;20223;-85
2020/12/29 08:51:21;;;;;;;31.23;17.90;;;4.90;99.90;;;-146.47;100.00;66290.13;4910170;29;20309;-84
2020/12/29 08:54:09;;;;;;;33.07;20.07;;;4.90;99.90;;;-146.47;100.00;66290.13;4913738;29;20264;-83
2020/12/29 08:57:01;;;;;;;34.63;20.03;;;4.90;99.90;;;-146.47;100.00;66290.13;4917627;29;20251;-83
2020/12/29 08:59:52;;;;;;;31.97;19.97;;;4.90;99.90;;;-146.47;100.00;66290.13;4909837;29;20308;-83
2020/12/29 09:02:37;;;;;;;33.13;19.27;;;4.90;99.90;;;-146.47;100.00;66290.13;4916407;29;20211;-83
2020/12/29 09:05:25;;;;;;;31.93;18.57;;;4.90;99.90;;;-146.47;100.00;66290.13;4912660;29;20308;-83
2020/12/29 09:08:11;;;;;;;29.80;18.33;;;4.90;99.90;;;-146.47;100.00;66290.13;4904933;29;20234;-84
2020/12/29 09:11:11;;;;;;;33.83;19.50;;;5.00;99.90;;;-146.47;100.00;66290.13;4917486;29;20283;-83
2020/12/29 09:14:02;;;;;;;32.13;18.77;;;5.00;99.90;;;-146.47;100.00;66290.13;4911283;29;20253;-84
2020/12/29 09:17:00;;;;;;;31.30;17.20;;;5.00;99.90;;;-146.47;100.00;66290.13;4933753;29;20223;-84
2020/12/29 09:20:11;;;;;;;29.73;17.17;;;5.00;99.90;;;-146.47;100.00;66290.13;4917208;29;20268;-84
2020/12/29 09:23:03;;;;;;;32.70;19.60;;;5.00;99.90;;;-146.47;100.00;66290.13;4910479;29;20220;-84
2020/12/29 09:25:49;;;;;;;32.27;18.70;;;5.00;99.90;;;-146.47;100.00;66290.13;4912032;29;20243;-82
2020/12/29 09:28:34;;;;;;;30.67;19.03;;;5.00;99.90;;;-146.47;100.00;66290.13;4914032;29;20619;-84
2020/12/29 09:31:25;;;;;;;31.43;18.83;;;5.00;99.90;;;-146.47;100.00;66290.13;4919882;29;20240;-81
2020/12/29 09:34:10;;;;;;;29.20;17.40;;;5.10;99.90;;;-146.47;100.00;66290.13;4917840;29;20585;-82
2020/12/29 09:37:08;;;;;;;29.17;17.37;;;5.10;99.90;;;-146.47;100.00;66290.13;4912094;29;20236;-81
2020/12/29 09:39:53;;;;;;;33.60;18.87;;;5.10;99.90;;;-146.47;100.00;66290.13;4899645;29;20579;-82
2020/12/29 09:42:39;;;;;;;29.60;17.97;;;5.20;99.90;;;-146.47;100.00;66290.13;4911711;29;20228;-82
2020/12/29 09:45:25;;;;;;;29.67;19.37;;;5.20;99.90;;;-146.47;100.00;66290.13;4912456;29;20227;-81
2020/12/29 09:48:10;;;;;;;24.80;15.83;;;5.20;99.90;;;-146.47;100.00;66290.13;4908673;29;20263;-82
2020/12/29 09:50:56;;;;;;;29.03;17.87;;;5.30;99.90;;;-146.47;100.00;66290.13;4906474;29;20208;-83
2020/12/29 09:53:41;;;;;;;29.23;18.13;;;5.30;99.90;;;-146.47;100.00;66290.13;4909180;29;20242;-83
2020/12/29 09:56:27;;;;;;;29.83;19.23;;;5.30;99.90;;;-146.47;100.00;66290.13;4902992;29;20220;-83
2020/12/29 09:59:13;;;;;;;28.00;17.77;;;5.30;99.90;;;-146.47;100.00;66290.13;4914107;29;20690;-83
2020/12/29 10:01:58;;;;;;;27.77;16.57;;;5.40;99.90;;;-146.47;100.00;66290.13;4916133;29;20694;-83
2020/12/29 10:04:43;;;;;;;29.03;19.20;;;5.40;99.90;;;-146.47;100.00;66290.13;4909483;29;20319;-81
2020/12/29 10:07:29;;;;;;;26.97;16.13;;;5.40;99.90;;;-146.47;100.00;66290.13;4921331;29;20256;-81
2020/12/29 10:10:14;;;;;;;35.43;22.17;;;5.50;99.90;;;-146.47;100.00;66290.13;4916290;29;20326;-81
2020/12/29 10:12:59;;;;;;;36.53;20.43;;;5.50;99.90;;;-146.47;100.00;66290.13;4906124;29;20227;-81
2020/12/29 10:15:45;;;;;;;35.67;22.43;;;5.60;99.90;;;-146.47;100.00;66290.13;4920320;29;20211;-82
2020/12/29 10:18:32;;;;;;;31.27;18.37;;;5.70;99.90;;;-146.47;100.00;66290.13;4908105;29;20260;-82
2020/12/29 10:21:16;;;;;;;34.23;20.70;;;5.80;99.90;;;-146.47;100.00;66290.13;4921314;29;20795;-82
2020/12/29 10:24:02;;;;;;;32.30;21.03;;;5.90;99.90;;;-146.47;100.00;66290.13;4919579;29;20256;-81
2020/12/29 10:26:50;;;;;;;27.17;16.97;;;6.00;99.90;;;-146.47;100.00;66290.13;4911014;29;20286;-81
2020/12/29 10:29:35;;;;;;;26.07;17.70;;;6.10;99.90;;;-146.47;100.00;66290.13;4920461;29;20575;-81
2020/12/29 10:32:21;;;;;;;20.00;14.03;;;6.20;99.90;;;-146.47;100.00;66290.13;4920459;29;20243;-81
2020/12/29 10:35:08;;;;;;;26.47;17.30;;;6.20;99.90;;;-146.47;100.00;66290.13;4909677;29;20216;-81
2020/12/29 10:37:54;;;;;;;30.13;18.17;;;6.30;99.90;;;-146.47;100.00;66290.13;4918062;29;20298;-81
2020/12/29 10:40:38;;;;;;;33.70;20.93;;;6.30;99.90;;;-146.47;100.00;66290.13;4919614;29;20215;-81
2020/12/29 10:43:24;;;;;;;33.93;21.97;;;6.30;99.90;;;-146.47;100.00;66290.13;4916530;29;20247;-82
2020/12/29 10:46:10;;;;;;;35.07;21.97;;;6.30;99.90;;;-146.47;100.00;66290.13;4914245;29;20227;-81
2020/12/29 10:48:56;;;;;;;33.47;20.63;;;6.30;99.90;;;-146.47;100.00;66290.13;4901418;29;20220;-81
2020/12/29 10:51:41;;;;;;;35.30;22.30;;;6.30;99.90;;;-146.47;100.00;66290.13;4908809;29;20229;-84
2020/12/29 10:54:26;;;;;;;37.23;21.17;;;6.30;99.90;;;-146.47;100.00;66290.13;4904752;29;20247;-81
2020/12/29 10:57:12;;;;;;;39.63;23.97;;;6.20;99.90;;;-146.47;100.00;66290.13;4920466;29;20215;-81
2020/12/29 10:59:57;;;;;;;41.67;27.43;;;6.20;99.90;;;-146.47;100.00;66290.13;4919032;29;20239;-81
2020/12/29 11:02:42;;;;;;;42.47;25.60;;;6.20;99.90;;;-146.47;100.00;66290.13;4913330;29;20251;-82
2020/12/29 11:05:28;;;;;;;44.27;30.20;;;6.20;99.90;;;-146.47;100.00;66290.13;4906289;29;20228;-81
2020/12/29 11:08:16;;;;;;;45.43;29.33;;;6.20;99.90;;;-146.47;100.00;66290.13;4908393;29;20212;-80
2020/12/29 11:11:04;;;;;;;44.87;27.90;;;6.20;99.90;;;-146.47;100.00;66290.13;4931797;29;20250;-81
2020/12/29 11:13:49;;;;;;;41.67;28.57;;;6.30;99.90;;;-146.47;100.00;66290.13;4907215;29;20599;-82
2020/12/29 11:16:35;;;;;;;47.90;30.40;;;6.20;99.90;;;-146.47;100.00;66290.13;4924867;29;20790;-82
2020/12/29 11:19:20;;;;;;;46.07;28.63;;;6.20;99.90;;;-146.47;100.00;66290.13;4909848;29;20215;-81
2020/12/29 11:22:06;;;;;;;47.17;27.23;;;6.30;99.90;;;-146.47;100.00;66290.13;4916691;29;20223;-81
2020/12/29 11:24:51;;;;;;;48.60;29.20;;;6.30;99.90;;;-146.47;100.00;66290.13;4911855;29;20276;-81
2020/12/29 11:27:37;;;;;;;45.53;28.23;;;6.30;99.90;;;-146.47;100.00;66290.13;4903777;29;20751;-82
2020/12/29 11:30:22;;;;;;;44.53;26.93;;;6.30;99.90;;;-146.47;100.00;66290.13;4902463;29;20641;-81
2020/12/29 11:33:08;;;;;;;46.50;26.97;;;6.40;99.90;;;-146.47;100.00;66290.13;4914842;29;20741;-80
2020/12/29 11:35:53;;;;;;;47.90;28.10;;;6.40;99.90;;;-146.47;100.00;66290.13;4906304;29;20784;-82
2020/12/29 11:38:39;;;;;;;42.03;27.80;;;6.40;99.90;;;-146.47;100.00;66290.13;4922517;29;20220;-81
2020/12/29 11:41:25;;;;;;;39.67;26.57;;;6.50;99.90;;;-146.47;100.00;66290.13;4927731;29;20233;-81
2020/12/29 11:44:10;;;;;;;43.70;28.03;;;6.50;99.90;;;-146.47;100.00;66290.13;4910391;29;20749;-81
2020/12/29 11:46:55;;;;;;;43.70;28.97;;;6.50;99.90;;;-146.47;100.00;66290.13;4905444;29;20203;-81
2020/12/29 11:49:41;;;;;;;39.27;27.27;;;6.60;99.90;;;-146.47;100.00;66290.13;4915303;29;20308;-81
2020/12/29 11:52:26;;;;;;;40.67;26.77;;;6.60;99.90;;;-146.47;100.00;66290.13;4909685;29;20240;-81
2020/12/29 11:55:12;;;;;;;40.60;27.40;;;6.70;99.90;;;-146.47;100.00;66290.13;4922175;29;20274;-81
2020/12/29 11:57:57;;;;;;;38.13;25.90;;;6.80;99.90;;;-146.47;100.00;66290.13;4913076;29;20299;-81
2020/12/29 12:00:42;;;;;;;42.00;28.90;;;6.80;99.90;;;-146.47;100.00;66290.13;4908589;29;20243;-81
2020/12/29 12:03:28;;;;;;;44.00;30.13;;;6.80;99.90;;;-146.47;100.00;66290.13;4915891;29;20230;-81
2020/12/29 12:06:13;;;;;;;47.17;27.10;;;6.90;99.90;;;-146.47;100.00;66290.13;4900399;29;20239;-81
2020/12/29 12:08:58;;;;;;;44.47;26.17;;;6.90;99.90;;;-146.47;100.00;66290.13;4919781;29;20219;-82
2020/12/29 12:11:46;;;;;;;36.17;26.37;;;6.90;99.90;;;-146.47;100.00;66290.13;4909733;29;20217;-81
2020/12/29 12:14:31;;;;;;;29.27;18.90;;;6.90;99.90;;;-146.47;100.00;66290.13;4911411;29;20259;-81
2020/12/29 12:17:16;;;;;;;35.70;22.77;;;6.90;99.90;;;-146.47;100.00;66290.13;4912442;29;20245;-81
2020/12/29 12:20:02;;;;;;;38.03;24.27;;;6.90;99.90;;;-146.47;100.00;66290.13;4918202;29;20223;-81
2020/12/29 12:22:47;;;;;;;31.50;22.33;;;6.90;99.90;;;-146.47;100.00;66290.13;4912719;29;20590;-81
2020/12/29 12:25:32;;;;;;;34.73;23.27;;;6.90;99.90;;;-146.47;100.00;66290.13;4914305;29;20228;-81
2020/12/29 12:28:20;;;;;;;30.93;20.87;;;6.90;99.90;;;-146.47;100.00;66290.13;4913363;29;20211;-82
2020/12/29 12:31:12;;;;;;;33.83;22.10;;;6.90;99.90;;;-146.47;100.00;66290.13;4915765;29;20295;-82
2020/12/29 12:34:05;;;;;;;33.33;21.87;;;6.80;99.90;;;-146.47;100.00;66290.13;4912209;29;20232;-80
2020/12/29 12:36:55;;;;;;;30.60;20.63;;;6.90;99.90;;;-146.47;100.00;66290.13;4912464;29;20753;-82
2020/12/29 12:39:41;;;;;;;29.90;21.10;;;6.90;99.90;;;-146.47;100.00;66290.13;4916242;29;20220;-81
2020/12/29 12:42:26;;;;;;;30.03;22.60;;;6.90;99.90;;;-146.47;100.00;66290.13;4920413;29;20215;-81
2020/12/29 12:45:13;;;;;;;31.80;22.93;;;6.90;99.90;;;-146.47;100.00;66290.13;4907911;29;20839;-82
2020/12/29 12:48:06;;;;;;;31.17;22.20;;;6.90;99.90;;;-146.47;100.00;66290.13;4919098;29;20211;-80
2020/12/29 12:50:51;;;;;;;30.27;21.23;;;6.90;99.90;;;-146.47;100.00;66290.13;4910339;29;20303;-81
2020/12/29 12:53:36;;;;;;;31.53;21.50;;;6.80;99.90;;;-146.47;100.00;66290.13;4913382;29;20643;-81
2020/12/29 12:56:21;;;;;;;30.23;20.67;;;6.80;99.90;;;-146.47;100.00;66290.13;4920616;29;20235;-80
2020/12/29 12:59:07;;;;;;;28.17;19.20;;;6.80;99.90;;;-146.47;100.00;66290.13;4908857;29;20219;-81
2020/12/29 13:01:56;;;;;;;27.43;20.13;;;6.80;99.90;;;-146.47;100.00;66290.13;4921357;29;20221;-81
2020/12/29 13:04:43;;;;;;;32.40;20.80;;;6.70;99.90;;;-146.47;100.00;66290.13;4901277;29;20257;-81
2020/12/29 13:07:30;;;;;;;28.87;19.83;;;6.70;99.90;;;-146.47;100.00;66290.13;4909144;29;20714;-82
2020/12/29 13:10:17;;;;;;;31.17;20.90;;;6.70;99.90;;;-146.47;100.00;66290.13;4919474;29;20256;-81
2020/12/29 13:13:03;;;;;;;27.77;19.37;;;6.70;99.90;;;-146.47;100.00;66290.13;4921089;29;20231;-81
2020/12/29 13:15:48;;;;;;;28.97;20.17;;;6.70;99.90;;;-146.47;100.00;66290.13;4921027;29;20211;-81
2020/12/29 13:18:38;;;;;;;23.20;15.83;;;6.60;99.90;;;-146.47;100.00;66290.13;4932237;29;20260;-82
2020/12/29 13:21:28;;;;;;;31.90;22.27;;;6.60;99.90;;;-146.47;100.00;66290.13;4939680;29;20231;-81
2020/12/29 13:24:17;;;;;;;37.70;24.87;;;6.60;99.90;;;-146.47;100.00;66290.13;4938581;28;20224;-82
2020/12/29 13:27:03;;;;;;;35.67;24.03;;;6.60;99.90;;;-146.47;100.00;66290.13;4932119;29;20213;-81
2020/12/29 13:29:52;;;;;;;35.47;23.40;;;6.50;99.90;;;-146.47;100.00;66290.13;4938643;28;20292;-81
2020/12/29 13:32:44;;;;;;;40.97;25.60;;;6.60;99.90;;;-146.47;100.00;66290.13;4933383;28;20267;-80
2020/12/29 13:35:30;;;;;;;40.00;27.53;;;6.60;99.90;;;-146.47;100.00;66290.13;4919262;29;20232;-80
2020/12/29 13:38:15;;;;;;;39.13;24.53;;;6.40;99.90;;;-146.47;100.00;66290.13;4920388;29;20251;-81
2020/12/29 13:41:01;;;;;;;37.80;24.43;;;6.40;99.90;;;-146.47;100.00;66290.13;4916946;29;20223;-81
2020/12/29 13:43:46;;;;;;;46.03;28.00;;;6.40;99.90;;;-146.47;100.00;66290.13;4907978;29;20252;-81
2020/12/29 13:46:31;;;;;;;41.90;27.23;;;6.30;99.90;;;-146.47;100.00;66290.13;4917218;29;20219;-81
2020/12/29 13:49:16;;;;;;;39.80;25.27;;;6.30;99.90;;;-146.47;100.00;66290.13;4913295;29;20275;-82
2020/12/29 13:52:03;;;;;;;42.87;27.33;;;6.30;99.90;;;-146.47;100.00;66290.13;4919327;29;20208;-81
2020/12/29 13:55:14;;;;;;;33.00;21.20;;;6.30;99.90;;;-146.47;100.00;66290.13;4906115;29;20219;-81
2020/12/29 13:57:59;;;;;;;43.53;27.37;;;6.20;99.90;;;-146.47;100.00;66290.13;4916316;29;20733;-80
2020/12/29 14:00:45;;;;;;;41.73;26.23;;;6.20;99.90;;;-146.47;100.00;66290.13;4922074;29;20693;-81
2020/12/29 14:03:30;;;;;;;41.87;26.90;;;6.10;99.90;;;-146.47;100.00;66290.13;4920178;29;20235;-81
2020/12/29 14:06:15;;;;;;;39.47;26.73;;;6.10;99.90;;;-146.47;100.00;66290.13;4928478;29;20260;-80
2020/12/29 14:09:01;;;;;;;40.57;26.40;;;6.10;99.90;;;-146.47;100.00;66290.13;4927862;29;20223;-81
2020/12/29 14:11:49;;;;;;;39.13;25.50;;;6.10;99.90;;;-146.47;100.00;66290.13;4916989;29;20290;-82
2020/12/29 14:14:34;;;;;;;38.60;25.10;;;6.10;99.90;;;-146.47;100.00;66290.13;4914489;29;20590;-82
2020/12/29 14:17:19;;;;;;;37.10;23.73;;;6.10;99.90;;;-146.47;100.00;66290.13;4920431;29;20300;-81
2020/12/29 14:20:09;;;;;;;34.07;21.70;;;6.00;99.90;;;-146.47;100.00;66290.13;4919462;29;20282;-80
2020/12/29 14:22:55;;;;;;;34.73;21.23;;;6.00;99.90;;;-146.47;100.00;66290.13;4913435;29;20212;-81
2020/12/29 14:25:42;;;;;;;36.13;25.27;;;5.90;99.90;;;-146.47;100.00;66290.13;4920177;29;20643;-82
2020/12/29 14:28:27;;;;;;;33.60;20.97;;;6.00;99.90;;;-146.47;100.00;66290.13;4916547;29;20207;-81
2020/12/29 14:31:12;;;;;;;36.33;23.90;;;6.00;99.90;;;-146.47;100.00;66290.13;4910114;29;20232;-84
2020/12/29 14:33:57;;;;;;;25.87;15.83;;;6.00;99.90;;;-146.47;100.00;66290.13;4918564;29;20264;-81
2020/12/29 14:36:44;;;;;;;37.67;22.60;;;5.90;99.90;;;-146.47;100.00;66290.13;4921173;29;20644;-82
2020/12/29 14:39:29;;;;;;;38.97;25.67;;;5.90;99.90;;;-146.47;100.00;66290.13;4913005;29;20220;-83
2020/12/29 14:42:16;;;;;;;27.13;17.37;;;5.90;99.90;;;-146.47;100.00;66290.13;4915468;29;20219;-82
2020/12/29 14:45:02;;;;;;;40.37;26.60;;;5.90;99.90;;;-146.47;100.00;66290.13;4921470;29;20223;-83
2020/12/29 14:47:47;;;;;;;31.20;21.63;;;5.90;99.90;;;-146.47;100.00;66290.13;4920599;29;20219;-84
2020/12/29 14:50:32;;;;;;;32.50;21.80;;;5.90;99.90;;;-146.47;100.00;66290.13;4908638;29;20268;-83
2020/12/29 14:53:17;;;;;;;35.33;24.43;;;5.80;99.90;;;-146.47;100.00;66290.13;4919132;29;20268;-82
2020/12/29 14:59:11;;;;;;;33.97;23.00;;;5.80;99.90;;;-146.47;100.00;66290.13;4916078;29;20323;-85
2020/12/29 15:01:56;;;;;;;30.43;17.30;;;5.80;99.90;;;-146.47;100.00;66290.13;4917038;29;20244;-82
2020/12/29 15:19:28;;;;;;;23.00;16.33;;;5.80;99.90;;;-146.47;100.00;66290.13;4899739;29;20244;-83
2020/12/29 15:22:21;;;;;;;25.70;17.70;;;5.90;99.90;;;-146.47;100.00;66290.13;4811862;29;20234;-82
2020/12/29 15:25:09;;;;;;;26.77;17.60;;;5.80;99.90;;;-146.47;100.00;66290.13;4906272;29;20268;-81